หน้าหลัก
METAR-TAF:

METAR-TAF

ท่าอากาศยาน :

Masvingo, ซิมบับเว

ละติจูด: 20-04S, ลองจิจูด: 030-52E, ความสูง: 1094 ม.

การสังเกตสภาพอากาศปัจจุบัน

รายงานได้ทำขึ้นเมื่อ 4 ชั่วโมงและ 47 นาทีที่แล้ว ณ เวลา 15:00 UTC
ลม 10 นอตจากตะวันออกเฉียงใต้
อุณหภูมิ 24°C
ความชื้น 44%
ความกดอากาศ 1020 hPa
ทัศนวิสัย 10 กม. หรือมากกว่า
ไม่มีเมฆต่ำกว่า 1,500 ม. และไม่มีเมฆคิวมูโลนิมบัส

METAR: FVMV 151500Z 14010KT CAVOK 24/11 Q1020

เวลา: 21:47 (19:47 UTC)


TAF: หายไป

สังเกตการณ์สภาพอากาศและพยากรณ์อากาศของสนามบินมากกว่า 4000 แห่ง (รายงาน METAR และ TAF).

สถานีที่ดูได้จะแสดงไว้ด้วยจุดสีเหลืองและสีแดงบนแผนที่.

เลื่อนเมาส์ไปเหนือจุดเพื่อดูชื่อสถานี.

แล้วคลิกเพื่อดูสังเกตการณ์และการพยากรณ์สภาพอากาศ.

ในการเปลี่ยนแผนที่: คลิกที่ปุ่มสีเขียวที่มีกากบาทสีดำเพื่อซูมเข้า; ที่ปุ่มสีเขียวที่มีขีดเพื่อซูมออก; หรือที่ลูกศรสีเขียวเพื่อไปยังแผนที่ที่อยู่ติดกัน.


METAR-TAF: